Time;durP1;ratioP1;P1;durP2;ratioP2;P2;SDS_P1;SDS_P2;PMS_P1;PMS_P2;Temp;Humidity;BMP_temperature;BMP_pressure;BME280_temperature;BME280_humidity;BME280_pressure;Samples;Min_cycle;Max_cycle;Signal;HPM_P1;HPM_P2
2021/01/18 00:00:58;;;;;;;186.30;62.13;;;;;;;-13.28;75.17;98534.03;1779993;80;21459;-75
2021/01/18 00:03:25;;;;;;;142.57;50.73;;;;;;;-13.15;74.65;98539.13;1777907;79;22089;-75
2021/01/18 00:05:51;;;;;;;140.57;47.30;;;;;;;-13.04;74.11;98540.89;1777952;80;21024;-75
2021/01/18 00:08:18;;;;;;;146.80;53.15;;;;;;;-12.92;73.63;98544.67;1777928;79;21099;-75
2021/01/18 00:10:44;;;;;;;123.35;42.98;;;;;;;-12.75;73.65;98539.91;1777893;80;21147;-75
2021/01/18 00:13:10;;;;;;;143.78;47.85;;;;;;;-12.60;73.33;98549.16;1777920;79;21039;-75
2021/01/18 00:15:37;;;;;;;153.00;50.33;;;;;;;-12.52;72.98;98547.59;1778021;80;21464;-75
2021/01/18 00:18:03;;;;;;;166.00;55.40;;;;;;;-12.51;72.57;98548.42;1777894;79;21487;-75
2021/01/18 00:20:29;;;;;;;182.57;58.13;;;;;;;-12.53;72.32;98551.16;1778010;80;21421;-75
2021/01/18 00:22:55;;;;;;;169.62;58.02;;;;;;;-12.62;72.38;98545.36;1778096;79;21483;-75
2021/01/18 00:25:23;;;;;;;148.72;57.33;;;;;;;-12.74;71.97;98549.40;1778185;80;21146;-75
2021/01/18 00:27:49;;;;;;;158.97;56.75;;;;;;;-12.71;72.29;98549.17;1778293;79;21344;-75
2021/01/18 00:30:24;;;;;;;86.63;29.52;;;;;;;-12.78;71.97;98548.00;1778052;80;21118;-75
2021/01/18 00:32:51;;;;;;;174.47;60.58;;;;;;;-12.83;71.82;98545.25;1778055;79;21039;-74
2021/01/18 00:35:18;;;;;;;187.55;58.50;;;;;;;-13.11;71.83;98545.27;1778105;80;21078;-74
2021/01/18 00:37:49;;;;;;;159.35;56.45;;;;;;;-13.23;72.18;98538.91;1778303;79;21051;-73
2021/01/18 00:40:17;;;;;;;178.47;60.17;;;;;;;-13.28;73.04;98543.64;1778176;80;21393;-75
2021/01/18 00:42:44;;;;;;;182.12;62.00;;;;;;;-13.30;73.34;98545.06;1778137;79;21202;-75
2021/01/18 00:45:12;;;;;;;144.90;45.90;;;;;;;-13.26;72.83;98545.64;1778053;80;21103;-75
2021/01/18 00:47:45;;;;;;;;;;;;;;;-13.30;72.51;98550.75;1780680;79;21498;-75
2021/01/18 00:50:13;;;;;;;95.25;37.10;;;;;;;-13.28;72.67;98552.77;1778190;80;20226;-75
2021/01/18 00:52:41;;;;;;;126.25;42.73;;;;;;;-13.23;72.55;98562.38;1778191;79;22060;-75
2021/01/18 00:55:11;;;;;;;151.63;47.67;;;;;;;-13.20;72.47;98561.66;1778003;80;21123;-75
2021/01/18 00:57:37;;;;;;;120.85;39.88;;;;;;;-13.18;72.31;98549.77;1777133;79;21091;-75
2021/01/18 01:00:09;;;;;;;118.47;40.85;;;;;;;-13.18;72.41;98563.64;1779576;80;21067;-75
2021/01/18 01:02:41;;;;;;;114.37;35.25;;;;;;;-13.11;72.33;98570.53;1757701;79;21086;-75
2021/01/18 01:05:10;;;;;;;103.60;36.42;;;;;;;-13.12;72.05;98567.09;1785091;80;21962;-75
2021/01/18 01:07:41;;;;;;;118.80;36.38;;;;;;;-13.10;71.90;98562.58;1785269;79;21487;-75
2021/01/18 01:10:23;;;;;;;114.80;40.48;;;;;;;-13.09;71.67;98567.32;1785239;80;21027;-74
2021/01/18 01:12:58;;;;;;;120.33;42.43;;;;;;;-13.19;71.70;98571.11;1785258;79;21036;-74
2021/01/18 01:15:24;;;;;;;117.95;39.38;;;;;;;-13.23;71.72;98567.13;1785218;80;21468;-75
2021/01/18 01:17:51;;;;;;;133.18;40.75;;;;;;;-13.25;71.40;98575.99;1785308;79;21247;-74
2021/01/18 01:20:20;;;;;;;116.90;39.33;;;;;;;-13.28;71.25;98580.15;1785132;80;21495;-74
2021/01/18 01:22:46;;;;;;;114.75;40.05;;;;;;;-13.37;70.90;98568.64;1785211;79;21456;-74
2021/01/18 01:25:16;;;;;;;105.58;36.20;;;;;;;-13.47;70.72;98569.81;1785202;80;21023;-74
2021/01/18 01:27:42;;;;;;;101.07;37.48;;;;;;;-13.52;70.80;98570.62;1785204;79;21165;-75
2021/01/18 01:30:13;;;;;;;109.37;40.95;;;;;;;-13.54;70.96;98576.42;1785182;80;22308;-75
2021/01/18 01:32:41;;;;;;;134.25;49.45;;;;;;;-13.55;70.95;98573.47;1785246;79;21212;-74
2021/01/18 01:35:08;;;;;;;123.25;44.93;;;;;;;-13.55;70.96;98573.47;1785309;80;21209;-74
2021/01/18 01:37:37;;;;;;;73.83;26.20;;;;;;;-13.56;70.93;98576.19;1785198;79;21150;-74
2021/01/18 01:40:08;;;;;;;131.90;43.45;;;;;;;-13.62;70.40;98578.77;1785194;80;21130;-74
2021/01/18 01:42:34;;;;;;;95.75;33.00;;;;;;;-13.84;70.53;98576.95;1785278;79;21192;-74
2021/01/18 01:45:02;;;;;;;63.15;23.45;;;;;;;-13.98;70.50;98580.55;1785211;80;21107;-74
2021/01/18 01:47:33;;;;;;;122.98;38.33;;;;;;;-14.18;70.83;98582.48;1785177;79;21086;-74
2021/01/18 01:50:04;;;;;;;124.82;44.60;;;;;;;-14.29;71.17;98591.05;1785303;80;21090;-75
2021/01/18 01:52:30;;;;;;;124.72;44.45;;;;;;;-14.22;71.94;98591.92;1757431;79;21059;-74
2021/01/18 01:55:00;;;;;;;114.47;41.30;;;;;;;-14.16;71.57;98590.18;1785192;80;21134;-74
2021/01/18 01:57:28;;;;;;;137.20;45.52;;;;;;;-14.28;71.15;98595.31;1785220;79;21118;-74
2021/01/18 01:59:56;;;;;;;69.80;26.75;;;;;;;-14.32;71.35;98592.58;1785120;78;21118;-74
2021/01/18 02:02:23;;;;;;;109.27;38.55;;;;;;;-14.29;71.42;98588.91;1778240;79;21083;-75
2021/01/18 02:04:50;;;;;;;91.55;36.28;;;;;;;-14.36;71.37;98585.09;1778029;80;21090;-74
2021/01/18 02:07:26;;;;;;;101.67;39.30;;;;;;;-14.48;71.35;98583.40;1778093;80;22208;-74
2021/01/18 02:09:55;;;;;;;57.53;20.70;;;;;;;-14.51;71.61;98583.16;1777996;80;21452;-74
2021/01/18 02:12:23;;;;;;;112.10;35.78;;;;;;;-14.59;71.20;98585.47;1777984;79;21087;-74
2021/01/18 02:15:17;;;;;;;108.85;38.78;;;;;;;-14.76;71.29;98585.36;1778003;80;21071;-74
2021/01/18 02:18:10;;;;;;;115.62;39.15;;;;;;;-14.78;71.80;98589.84;1777986;79;21601;-76
2021/01/18 02:21:20;;;;;;;113.30;41.10;;;;;;;-14.77;71.83;98583.70;1777952;80;21183;-74
2021/01/18 02:24:28;;;;;;;106.22;38.10;;;;;;;-14.86;72.27;98585.17;1777921;79;21099;-74
2021/01/18 02:27:24;;;;;;;113.25;44.40;;;;;;;-14.79;71.93;98586.85;1768470;80;21134;-75
2021/01/18 02:30:13;;;;;;;116.75;38.75;;;;;;;-14.76;71.86;98575.42;1765045;80;21048;-75
2021/01/18 02:33:13;;;;;;;122.40;39.67;;;;;;;-14.74;71.65;98578.27;1777493;79;21483;-76
2021/01/18 02:36:02;;;;;;;125.02;47.50;;;;;;;-14.74;71.56;98580.04;1776047;80;21253;-77
2021/01/18 02:39:03;;;;;;;115.10;37.58;;;;;;;-14.80;70.92;98577.39;1777946;79;21031;-75
2021/01/18 02:41:37;;;;;;;25.60;8.13;;;;;;;-14.89;70.80;98581.94;1777971;80;21047;-76
2021/01/18 02:44:07;;;;;;;129.57;45.38;;;;;;;-15.16;70.27;98580.77;1776311;79;21134;-76
2021/01/18 02:46:35;;;;;;;96.90;34.23;;;;;;;-15.45;70.98;98581.47;1778083;80;21396;-75
2021/01/18 02:49:04;;;;;;;94.85;31.75;;;;;;;-15.49;70.69;98587.31;1777951;79;21970;-75
2021/01/18 02:51:34;;;;;;;116.95;38.60;;;;;;;-15.61;70.66;98587.35;1778003;80;28673;-74
2021/01/18 02:54:01;;;;;;;116.25;39.53;;;;;;;-15.76;70.73;98585.30;1777966;79;21165;-75
2021/01/18 02:56:31;;;;;;;102.70;35.60;;;;;;;-15.81;70.91;98586.88;1777943;80;21094;-74
2021/01/18 02:59:00;;;;;;;115.25;37.93;;;;;;;-15.75;71.50;98589.09;1778031;79;21181;-75
2021/01/18 03:02:10;;;;;;;128.50;41.58;;;;;;;-15.75;72.37;98593.45;1777706;80;21495;-75
2021/01/18 03:05:03;;;;;;;120.10;45.88;;;;;;;-15.65;72.21;98595.80;1777893;79;21091;-75
2021/01/18 03:07:56;;;;;;;111.90;41.63;;;;;;;-15.43;72.15;98593.88;1753846;79;21429;-75
2021/01/18 03:10:51;;;;;;;111.40;43.23;;;;;;;-15.28;72.18;98590.25;1777977;80;21491;-75
2021/01/18 03:13:40;;;;;;;115.47;43.50;;;;;;;-15.23;71.74;98589.45;1777442;79;21098;-75
2021/01/18 03:16:19;;;;;;;83.45;29.92;;;;;;;-15.40;71.31;98584.56;1777505;80;22040;-74
2021/01/18 03:18:46;;;;;;;113.92;36.58;;;;;;;-15.47;71.18;98595.83;1777849;79;21098;-75
2021/01/18 03:21:12;;;;;;;108.15;37.13;;;;;;;-15.60;70.74;98592.41;1777931;80;21043;-74
2021/01/18 03:23:42;;;;;;;100.65;37.25;;;;;;;-15.73;70.80;98587.21;1778033;79;21499;-74
2021/01/18 03:26:08;;;;;;;99.10;33.23;;;;;;;-15.69;71.23;98589.16;1778050;80;21067;-74
2021/01/18 03:28:34;;;;;;;97.65;36.03;;;;;;;-15.69;71.21;98583.49;1753839;80;22048;-74
2021/01/18 03:31:00;;;;;;;117.20;39.20;;;;;;;-15.80;70.77;98582.08;1777942;80;21074;-75
2021/01/18 03:33:27;;;;;;;119.62;38.30;;;;;;;-16.00;70.27;98579.94;1777947;79;21083;-74
2021/01/18 03:35:53;;;;;;;119.82;43.98;;;;;;;-16.10;70.56;98581.48;1777923;80;21030;-74
2021/01/18 03:38:20;;;;;;;116.55;42.03;;;;;;;-16.17;70.78;98570.66;1777956;79;21567;-75
2021/01/18 03:40:47;;;;;;;127.80;44.30;;;;;;;-16.09;70.82;98574.88;1777891;80;21217;-74
2021/01/18 03:43:13;;;;;;;125.02;43.95;;;;;;;-16.21;70.70;98572.27;1777854;79;21035;-74
2021/01/18 03:45:41;;;;;;;119.77;46.68;;;;;;;-16.26;71.15;98574.67;1777899;80;21139;-75
2021/01/18 03:48:10;;;;;;;95.80;38.48;;;;;;;-16.30;71.39;98577.11;1778078;79;21086;-74
2021/01/18 03:50:36;;;;;;;136.05;51.77;;;;;;;-16.20;72.14;98577.81;1778158;80;21078;-74
2021/01/18 03:53:03;;;;;;;92.78;37.60;;;;;;;-16.03;71.60;98580.16;1777911;79;21390;-74
2021/01/18 03:55:29;;;;;;;127.00;48.98;;;;;;;-16.03;71.60;98580.16;1777839;80;21126;-74
2021/01/18 03:57:56;;;;;;;119.33;42.67;;;;;;;-16.09;71.02;98572.75;1777937;79;21091;-74
2021/01/18 04:00:27;;;;;;;128.38;43.80;;;;;;;-16.09;70.90;98576.18;1777897;80;21086;-74
2021/01/18 04:02:53;;;;;;;137.32;51.55;;;;;;;-16.17;70.06;98577.61;1777147;79;21090;-74
2021/01/18 04:05:21;;;;;;;110.32;44.53;;;;;;;-16.30;69.73;98579.70;1778022;80;21974;-74
2021/01/18 04:07:47;;;;;;;155.65;63.28;;;;;;;-16.47;69.75;98564.85;1777791;79;21050;-74
2021/01/18 04:10:15;;;;;;;180.52;63.65;;;;;;;-16.45;70.33;98572.89;1777941;80;21154;-74
2021/01/18 04:12:44;;;;;;;25.48;13.58;;;;;;;-16.47;70.30;98570.88;1778051;79;21174;-75
2021/01/18 04:15:12;;;;;;;119.10;39.88;;;;;;;-16.38;70.96;98569.45;1778048;80;21111;-74
2021/01/18 04:17:47;;;;;;;65.12;28.55;;;;;;;-16.38;71.30;98566.86;1777895;79;21227;-74
2021/01/18 04:20:14;;;;;;;88.95;32.83;;;;;;;-16.30;71.11;98568.50;1777857;80;21534;-75
2021/01/18 04:22:52;;;;;;;69.40;28.10;;;;;;;-16.31;71.00;98565.08;1777940;79;21193;-74
2021/01/18 04:25:20;;;;;;;34.20;15.25;;;;;;;-16.28;70.91;98562.73;1778086;80;21047;-74
2021/01/18 04:27:55;;;;;;;41.60;16.55;;;;;;;-16.26;70.74;98562.16;1778012;79;21051;-74
2021/01/18 04:30:23;;;;;;;32.40;12.88;;;;;;;-16.35;70.58;98558.39;1777966;80;22062;-75
2021/01/18 04:32:57;;;;;;;32.78;14.25;;;;;;;-16.42;70.63;98558.88;1778082;79;21032;-74
2021/01/18 04:35:24;;;;;;;67.78;29.02;;;;;;;-16.49;70.80;98549.82;1777962;80;21095;-74
2021/01/18 04:37:51;;;;;;;105.22;38.28;;;;;;;-16.49;71.04;98548.06;1777971;79;21051;-74
2021/01/18 04:40:21;;;;;;;63.00;25.92;;;;;;;-16.42;70.65;98560.19;1778018;80;21095;-74
2021/01/18 04:42:49;;;;;;;61.25;21.40;;;;;;;-16.42;70.65;98560.19;1753912;80;21262;-74
2021/01/18 04:45:17;;;;;;;49.10;16.80;;;;;;;-16.44;70.76;98563.34;1777464;80;21106;-74
2021/01/18 04:47:45;;;;;;;90.77;30.52;;;;;;;-16.49;70.64;98559.73;1778000;79;21217;-74
2021/01/18 04:50:14;;;;;;;85.80;25.25;;;;;;;-16.63;70.72;98558.50;1777915;80;21068;-74
2021/01/18 04:52:57;;;;;;;122.95;42.95;;;;;;;-16.69;70.90;98557.61;1777676;79;21249;-74
2021/01/18 04:55:32;;;;;;;120.53;34.80;;;;;;;-16.67;71.44;98563.03;1777922;80;21959;-74
2021/01/18 04:58:13;;;;;;;50.38;24.77;;;;;;;-16.59;71.37;98565.14;1777819;79;21063;-74
2021/01/18 05:00:48;;;;;;;110.28;39.40;;;;;;;-16.53;70.97;98555.22;1778000;80;21103;-74
2021/01/18 05:03:24;;;;;;;131.10;46.88;;;;;;;-16.59;70.95;98560.78;1785620;80;21084;-74
2021/01/18 05:06:07;;;;;;;156.12;53.30;;;;;;;-16.61;70.40;98556.17;1785782;80;21494;-75
2021/01/18 05:09:03;;;;;;;120.65;40.75;;;;;;;-16.64;70.06;98564.16;1779394;80;22125;-75
2021/01/18 05:11:29;;;;;;;100.92;34.53;;;;;;;-16.73;69.61;98572.55;1785742;80;21061;-75
2021/01/18 05:14:02;;;;;;;102.82;35.48;;;;;;;-16.71;70.22;98574.58;1785765;80;21501;-74
2021/01/18 05:16:35;;;;;;;122.60;44.03;;;;;;;-16.84;69.19;98581.44;1759253;80;21041;-74
2021/01/18 05:19:09;;;;;;;128.75;47.70;;;;;;;-16.94;68.90;98573.40;1785810;80;21506;-75
2021/01/18 05:21:41;;;;;;;132.10;42.67;;;;;;;-16.98;69.26;98577.13;1759530;80;21120;-74
2021/01/18 05:24:08;;;;;;;141.35;48.05;;;;;;;-16.84;70.26;98572.36;1784904;80;21096;-74
2021/01/18 05:26:35;;;;;;;111.03;37.67;;;;;;;-16.73;70.54;98564.77;1785724;80;21085;-74
2021/01/18 05:29:01;;;;;;;162.32;58.52;;;;;;;-16.75;70.07;98570.49;1785722;80;21084;-74
2021/01/18 05:31:37;;;;;;;134.52;46.48;;;;;;;-16.90;69.75;98569.70;1785855;80;21033;-75
2021/01/18 05:34:15;;;;;;;185.63;62.20;;;;;;;-16.99;68.74;98568.15;1785800;80;22046;-74
2021/01/18 05:36:47;;;;;;;32.00;15.23;;;;;;;-17.12;69.39;98571.48;1785807;80;21140;-75
2021/01/18 05:39:20;;;;;;;222.82;71.17;;;;;;;-17.00;70.53;98569.91;1785748;80;21544;-74
2021/01/18 05:41:53;;;;;;;187.60;68.17;;;;;;;-17.02;70.90;98571.74;1785752;80;21512;-75
2021/01/18 05:44:22;;;;;;;201.55;65.32;;;;;;;-17.03;70.03;98575.27;1785792;80;21391;-75
2021/01/18 05:46:48;;;;;;;206.23;68.72;;;;;;;-17.05;69.82;98575.83;1775840;80;21923;-75
2021/01/18 05:49:20;;;;;;;183.95;65.28;;;;;;;-17.09;69.96;98580.81;1785681;80;21462;-75
2021/01/18 05:51:53;;;;;;;99.85;33.55;;;;;;;-17.07;70.02;98573.80;1785734;80;21096;-75
2021/01/18 05:54:23;;;;;;;96.45;36.38;;;;;;;-17.12;69.42;98570.18;1785750;80;21419;-75
2021/01/18 05:56:54;;;;;;;102.75;37.60;;;;;;;-17.25;69.39;98573.16;1785719;80;21093;-76
2021/01/18 05:59:24;;;;;;;82.88;31.70;;;;;;;-17.40;69.43;98577.50;1784985;80;22058;-75
2021/01/18 06:01:53;;;;;;;105.52;36.05;;;;;;;-17.60;68.38;98583.48;1783948;80;21119;-75
2021/01/18 06:04:22;;;;;;;87.90;35.20;;;;;;;-17.68;68.87;98577.48;1780632;79;21419;-75
2021/01/18 06:06:55;;;;;;;93.07;34.53;;;;;;;-17.83;68.73;98578.41;1780737;80;21416;-75
2021/01/18 06:09:23;;;;;;;126.40;47.55;;;;;;;-18.00;69.29;98570.31;1780784;79;21078;-75
2021/01/18 06:11:49;;;;;;;95.97;34.03;;;;;;;-18.01;69.70;98568.19;1781081;80;22029;-75
2021/01/18 06:14:15;;;;;;;106.75;34.83;;;;;;;-18.06;69.72;98573.25;1780681;79;21082;-75
2021/01/18 06:16:41;;;;;;;140.12;46.30;;;;;;;-18.04;70.21;98580.45;1731554;80;21423;-76
2021/01/18 06:19:08;;;;;;;120.72;41.02;;;;;;;-18.18;69.94;98581.27;1756665;80;21074;-75
2021/01/18 06:21:41;;;;;;;85.62;29.85;;;;;;;-18.16;69.80;98579.88;1780796;80;21190;-75
2021/01/18 06:24:20;;;;;;;76.25;28.85;;;;;;;-18.16;69.12;98590.23;1780727;79;21196;-75
2021/01/18 06:26:47;;;;;;;128.53;38.10;;;;;;;-18.17;70.14;98589.39;1780734;80;21055;-74
2021/01/18 06:29:37;;;;;;;173.28;62.55;;;;;;;-18.19;69.94;98592.54;1780693;79;21043;-74
2021/01/18 06:32:05;;;;;;;201.50;68.42;;;;;;;-18.19;70.40;98590.41;1780824;80;21028;-75
2021/01/18 06:34:31;;;;;;;216.55;69.92;;;;;;;-18.05;70.60;98603.38;1780888;79;21011;-74
2021/01/18 06:36:58;;;;;;;186.70;66.12;;;;;;;-17.93;70.88;98599.28;1780732;80;21188;-74
2021/01/18 06:39:25;;;;;;;197.85;70.72;;;;;;;-17.91;69.96;98600.84;1780781;79;21126;-74
2021/01/18 06:41:58;;;;;;;204.38;69.10;;;;;;;-17.96;69.63;98597.21;1762260;81;21033;-74
2021/01/18 06:44:39;;;;;;;187.22;56.20;;;;;;;-17.91;70.16;98599.55;1780507;79;21091;-74
2021/01/18 06:47:27;;;;;;;169.07;59.75;;;;;;;-17.78;70.25;98600.50;1762272;81;21092;-74
2021/01/18 06:50:03;;;;;;;159.85;59.98;;;;;;;-17.67;70.18;98602.45;1780739;80;21971;-75
2021/01/18 06:52:33;;;;;;;85.20;35.38;;;;;;;-17.70;70.05;98593.12;1762166;81;21056;-74
2021/01/18 06:55:07;;;;;;;148.93;53.20;;;;;;;-17.73;69.73;98603.66;1780687;80;21098;-75
2021/01/18 06:58:07;;;;;;;158.00;60.25;;;;;;;-17.73;69.81;98599.78;1762211;81;21025;-74
2021/01/18 07:00:34;;;;;;;181.10;66.85;;;;;;;-17.84;69.61;98598.28;1780709;80;21118;-74
2021/01/18 07:03:07;;;;;;;176.10;57.08;;;;;;;-17.83;71.21;98608.17;1760424;80;22171;-74
2021/01/18 07:05:47;;;;;;;117.03;47.93;;;;;;;-17.73;70.72;98610.59;1759680;81;21101;-74
2021/01/18 07:08:19;;;;;;;196.12;72.50;;;;;;;-17.58;70.38;98615.33;1759781;80;21164;-74
2021/01/18 07:10:47;;;;;;;97.62;34.88;;;;;;;-17.59;70.65;98605.89;1759149;81;21092;-74
2021/01/18 07:13:14;;;;;;;107.05;36.40;;;;;;;-17.72;69.22;98610.97;1759920;80;21119;-74
2021/01/18 07:15:41;;;;;;;140.77;47.43;;;;;;;-17.79;69.11;98613.53;1759720;81;21250;-75
2021/01/18 07:18:09;;;;;;;94.50;36.90;;;;;;;-18.02;68.74;98613.12;1759585;80;21109;-74
2021/01/18 07:20:42;;;;;;;118.02;48.40;;;;;;;-18.04;69.42;98612.81;1759816;81;24720;-75
2021/01/18 07:23:14;;;;;;;144.68;49.58;;;;;;;-18.07;69.74;98609.95;1759692;80;21033;-74
2021/01/18 07:25:45;;;;;;;141.37;42.55;;;;;;;-18.15;70.26;98612.13;1759841;81;21076;-74
2021/01/18 07:28:18;;;;;;;123.45;42.53;;;;;;;-18.03;69.68;98617.06;1759671;80;21197;-75
2021/01/18 07:30:45;;;;;;;178.18;59.48;;;;;;;-17.99;69.83;98618.57;1759694;81;21521;-75
2021/01/18 07:33:16;;;;;;;225.10;81.72;;;;;;;-17.92;70.09;98621.19;1759746;80;21044;-74
2021/01/18 07:35:44;;;;;;;123.55;46.45;;;;;;;-17.93;70.20;98625.16;1734220;81;21097;-75
2021/01/18 07:38:21;;;;;;;178.53;64.45;;;;;;;-17.77;69.91;98622.04;1759781;80;21021;-74
2021/01/18 07:41:05;;;;;;;164.85;58.55;;;;;;;-17.90;69.59;98630.16;1759753;81;21251;-74
2021/01/18 07:43:42;;;;;;;139.82;51.23;;;;;;;-17.90;69.04;98628.86;1748126;80;21037;-74
2021/01/18 07:46:29;;;;;;;224.95;79.05;;;;;;;-17.78;69.78;98625.55;1759947;81;21097;-74
2021/01/18 07:48:58;;;;;;;208.53;72.58;;;;;;;-17.78;69.14;98619.08;1758874;80;21104;-74
2021/01/18 07:51:27;;;;;;;227.90;88.27;;;;;;;-17.65;69.49;98631.67;1759123;81;21116;-74
2021/01/18 07:53:55;;;;;;;246.32;91.78;;;;;;;-17.55;70.05;98631.97;1759743;80;21347;-74
2021/01/18 07:56:27;;;;;;;207.65;72.27;;;;;;;-17.43;69.55;98635.98;1734149;81;21139;-74
2021/01/18 07:59:02;;;;;;;228.62;78.40;;;;;;;-17.33;69.76;98638.03;1758646;80;21045;-74
2021/01/18 08:01:30;;;;;;;234.47;82.82;;;;;;;-17.23;69.94;98631.38;1759703;81;21093;-74
2021/01/18 08:04:18;;;;;;;469.80;175.65;;;;;;;-17.16;69.55;98633.97;1751008;80;21081;-74
2021/01/18 08:07:04;;;;;;;467.22;177.47;;;;;;;-17.11;69.95;98624.98;1750628;82;21125;-74
2021/01/18 08:09:32;;;;;;;483.72;190.35;;;;;;;-16.99;69.56;98623.42;1750510;80;21042;-74
2021/01/18 08:12:35;;;;;;;395.33;143.28;;;;;;;-17.07;69.49;98616.57;1750545;82;21121;-74
2021/01/18 08:15:06;;;;;;;323.07;113.97;;;;;;;-16.99;70.44;98611.75;1750519;82;21120;-75
2021/01/18 08:17:33;;;;;;;215.60;75.17;;;;;;;-16.79;69.76;98615.71;1750537;80;21521;-76
2021/01/18 08:22:54;;;;;;;183.30;60.63;;;;;;;-16.52;70.13;98608.77;1882095;76;22549;-74
2021/01/18 08:25:20;;;;;;;310.82;120.92;;;;;;;-16.31;70.19;98615.68;1827446;78;21007;-74
2021/01/18 08:27:47;;;;;;;176.18;62.27;;;;;;;-16.22;70.07;98616.03;1769265;78;21981;-75
2021/01/18 08:30:34;;;;;;;65.85;28.12;;;;;;;-15.97;70.32;98614.82;1827251;78;21090;-74
2021/01/18 08:33:04;;;;;;;250.13;85.87;;;;;;;-15.68;70.75;98625.42;1827360;77;21507;-74
2021/01/18 08:35:37;;;;;;;92.35;35.90;;;;;;;-15.68;70.75;98625.42;1825688;78;20960;-75
2021/01/18 08:38:08;;;;;;;155.00;58.85;;;;;;;-15.39;70.25;98622.14;1827339;77;21051;-75
2021/01/18 08:40:46;;;;;;;236.30;83.10;;;;;;;-15.30;69.91;98625.89;1827321;78;21122;-75
2021/01/18 08:43:13;;;;;;;213.92;77.67;;;;;;;-15.25;69.83;98616.50;1827377;77;21448;-74
2021/01/18 08:45:52;;;;;;;99.92;37.00;;;;;;;-15.11;69.76;98622.91;1827267;78;21083;-74
2021/01/18 08:48:22;;;;;;;61.70;29.87;;;;;;;-14.97;69.59;98614.14;1827447;77;21094;-74
2021/01/18 08:50:53;;;;;;;210.30;82.72;;;;;;;-14.85;69.55;98615.92;1827336;78;21331;-75
2021/01/18 08:53:34;;;;;;;226.50;83.03;;;;;;;-14.78;69.14;98612.39;1827308;77;21150;-75
2021/01/18 08:56:04;;;;;;;223.53;86.75;;;;;;;-14.71;69.34;98609.27;1827322;78;21038;-74
2021/01/18 08:58:38;;;;;;;280.98;116.82;;;;;;;-14.56;69.43;98617.30;1827345;77;21396;-75
2021/01/18 09:01:08;;;;;;;148.85;54.63;;;;;;;-14.48;69.56;98612.03;1827329;78;21602;-75
2021/01/18 09:03:34;;;;;;;188.07;67.00;;;;;;;-14.43;69.20;98606.84;1827354;77;21102;-75
2021/01/18 09:06:01;;;;;;;137.32;51.85;;;;;;;-14.44;69.29;98614.27;1827243;78;22013;-75
2021/01/18 09:08:28;;;;;;;157.05;57.30;;;;;;;-14.30;69.52;98611.99;1827174;77;21093;-75
2021/01/18 09:11:00;;;;;;;174.90;63.83;;;;;;;-14.17;69.60;98614.57;1827359;78;21491;-75
2021/01/18 09:13:30;;;;;;;115.00;42.23;;;;;;;-14.02;69.77;98607.75;1827355;77;21494;-75
2021/01/18 09:15:58;;;;;;;112.20;38.30;;;;;;;-13.96;69.69;98606.02;1827375;78;21288;-76
2021/01/18 09:18:25;;;;;;;93.25;31.42;;;;;;;-13.87;69.70;98600.60;1827396;77;21479;-75
2021/01/18 09:20:54;;;;;;;130.78;45.40;;;;;;;-13.72;69.66;98591.66;1826916;78;21193;-76
2021/01/18 09:23:21;;;;;;;100.40;38.20;;;;;;;-13.76;69.35;98593.29;1824907;77;21145;-73
2021/01/18 09:25:47;;;;;;;114.70;46.88;;;;;;;-13.67;69.57;98592.61;1825195;78;21137;-73
2021/01/18 09:28:14;;;;;;;153.10;55.75;;;;;;;-13.55;69.82;98590.88;1825203;77;21011;-73
2021/01/18 09:30:43;;;;;;;142.87;56.55;;;;;;;-13.38;70.14;98583.93;1825320;78;21495;-73
2021/01/18 09:33:13;;;;;;;152.95;55.23;;;;;;;-13.15;70.01;98575.64;1824949;77;25614;-73
2021/01/18 09:35:43;;;;;;;182.62;61.88;;;;;;;-12.95;69.52;98585.36;1824588;78;21102;-74
2021/01/18 09:38:10;;;;;;;89.35;37.70;;;;;;;-12.74;69.92;98569.80;1824597;77;21031;-74
2021/01/18 09:40:39;;;;;;;213.87;89.17;;;;;;;-12.55;69.10;98574.44;1824634;78;21077;-74
2021/01/18 09:43:06;;;;;;;;;;;;;;;-12.51;68.97;98568.00;1827284;77;21232;-74
2021/01/18 09:45:33;;;;;;;149.53;57.73;;;;;;;-12.36;68.59;98575.11;1824567;78;20511;-74
2021/01/18 09:48:02;;;;;;;192.18;70.25;;;;;;;-12.19;68.77;98558.91;1824595;77;21031;-74
2021/01/18 09:50:28;;;;;;;37.50;20.85;;;;;;;-12.16;68.75;98559.96;1824635;78;21088;-74
2021/01/18 09:52:54;;;;;;;194.13;72.50;;;;;;;-11.99;68.59;98555.98;1824569;77;21110;-75
2021/01/18 09:55:26;;;;;;;152.53;54.85;;;;;;;-11.98;68.63;98553.23;1824708;78;21174;-74
2021/01/18 09:58:07;;;;;;;171.30;67.37;;;;;;;-11.91;67.81;98552.27;1824611;77;21035;-74
2021/01/18 10:00:38;;;;;;;161.73;58.92;;;;;;;-11.76;68.03;98547.06;1824750;78;21475;-74
2021/01/18 10:03:04;;;;;;;152.80;57.17;;;;;;;-11.67;67.34;98544.99;1823975;78;21156;-75
2021/01/18 10:05:34;;;;;;;168.90;65.75;;;;;;;-11.48;67.78;98534.30;1824605;78;21145;-75
2021/01/18 10:08:21;;;;;;;161.82;65.97;;;;;;;-11.32;67.93;98531.23;1824583;77;21337;-75
2021/01/18 10:10:50;;;;;;;157.03;66.85;;;;;;;-11.13;67.94;98534.77;1824549;78;21138;-74
2021/01/18 10:13:19;;;;;;;147.72;50.33;;;;;;;-10.87;68.43;98526.47;1824667;77;21110;-74
2021/01/18 10:15:46;;;;;;;153.80;66.02;;;;;;;-10.66;68.37;98526.41;1824604;78;21121;-75
2021/01/18 10:18:34;;;;;;;180.35;68.12;;;;;;;-10.65;65.94;98518.91;1797170;78;21400;-75
2021/01/18 10:21:01;;;;;;;152.17;59.98;;;;;;;-10.51;66.11;98525.05;1824868;77;21250;-74
2021/01/18 10:23:32;;;;;;;135.57;56.05;;;;;;;-10.42;67.09;98517.72;1826646;77;21090;-74
2021/01/18 10:26:19;;;;;;;145.30;55.48;;;;;;;-10.30;67.03;98508.76;1826712;78;21114;-74
2021/01/18 10:29:00;;;;;;;117.95;46.88;;;;;;;-10.22;66.78;98515.95;1826586;77;21514;-75
2021/01/18 10:31:33;;;;;;;125.87;45.90;;;;;;;-10.02;67.70;98518.88;1826754;78;21404;-74
2021/01/18 10:34:23;;;;;;;127.87;51.33;;;;;;;-9.93;67.81;98509.36;1826748;77;22123;-76
2021/01/18 10:36:51;;;;;;;133.25;50.80;;;;;;;-9.83;67.67;98510.66;1826490;78;21035;-74
2021/01/18 10:39:34;;;;;;;138.03;57.13;;;;;;;-9.65;67.82;98502.45;1826835;77;21152;-75
2021/01/18 10:42:04;;;;;;;149.85;60.33;;;;;;;-9.46;68.13;98503.72;1826587;78;21424;-75
2021/01/18 10:44:32;;;;;;;131.47;55.48;;;;;;;-9.33;65.59;98503.89;1826484;77;21030;-75
2021/01/18 10:46:58;;;;;;;147.82;57.45;;;;;;;-9.25;66.21;98504.00;1826715;78;22006;-75
2021/01/18 10:49:26;;;;;;;150.20;59.15;;;;;;;-9.13;66.78;98501.08;1826687;77;20971;-75
2021/01/18 10:52:14;;;;;;;161.18;61.70;;;;;;;-9.00;66.60;98498.11;1826836;78;20893;-75
2021/01/18 10:54:41;;;;;;;232.18;82.57;;;;;;;-8.93;67.00;98497.88;1826805;77;21626;-74
2021/01/18 10:57:21;;;;;;;146.87;55.10;;;;;;;-8.76;67.10;98494.97;1826724;78;21149;-74
2021/01/18 11:00:16;;;;;;;149.12;62.65;;;;;;;-8.63;66.93;98497.23;1823286;78;21121;-74
2021/01/18 11:02:46;;;;;;;156.32;66.30;;;;;;;-8.44;67.83;98499.77;1826529;77;21213;-74
2021/01/18 11:05:12;;;;;;;161.57;67.90;;;;;;;-8.30;65.12;98493.13;1820470;78;21038;-75
2021/01/18 11:07:39;;;;;;;276.52;104.67;;;;;;;-8.12;67.26;98501.03;1794613;77;21121;-75
2021/01/18 11:10:06;;;;;;;320.30;115.55;;;;;;;-8.03;64.52;98500.98;1795194;78;21531;-75
2021/01/18 11:12:36;;;;;;;223.27;96.77;;;;;;;-7.97;66.32;98491.15;1826864;77;22154;-74
2021/01/18 11:15:08;;;;;;;201.52;84.42;;;;;;;-7.87;66.76;98484.48;1826672;78;21122;-75
2021/01/18 11:17:34;;;;;;;216.15;89.20;;;;;;;-7.72;67.30;98484.78;1826626;77;21165;-75
2021/01/18 11:20:00;;;;;;;211.75;86.63;;;;;;;-7.59;66.93;98487.03;1826581;78;21137;-75
2021/01/18 11:22:27;;;;;;;216.45;86.20;;;;;;;-7.51;66.23;98479.20;1825580;77;21479;-75
2021/01/18 11:24:53;;;;;;;175.97;71.20;;;;;;;-7.48;66.64;98478.88;1824543;78;21256;-75
2021/01/18 11:27:20;;;;;;;153.10;62.20;;;;;;;-7.37;66.85;98479.92;1824435;78;21078;-75
2021/01/18 11:29:46;;;;;;;169.05;67.62;;;;;;;-7.29;65.74;98476.52;1771602;78;21494;-75